Klamath Falls, OR (97603)

11:19 PM PDT on August 28, 2015 (GMT -0700)
Lockford | | Change Station
CLOSE
Current Station
Personal Weather Station
Location: Klamath Falls, OR
Elevation: 4124 ft
Nearby Weather Stations
Active Advisory: Wind Advisory

Elev 4124 ft 42.19 °N, 121.72 °W | Updated 44 seconds ago

Partly Cloudy
Partly Cloudy
68.9 °F
Feels Like 68.9 °F
N
1.6
Wind Variable Wind from SW
Gusts 6.9 mph

Today
High -- | Low -- °F
--% Chance of Precip.
Yesterday
High -- | Low -- °F
Precip. -- in
6:27 AM 7:47 PM
Full, 100% visible
Pressure 29.77 in
Visibility 10.0 miles
Clouds Clear
Dew Point 42 °F
Humidity 37%
Rainfall 0.00 in
Snow Depth Not available.
UV 0 out of 12
Pollen 5.40 out of 12
Air Quality Not available.
Flu Activity Not available.
METAR KLMT 290553Z AUTO 16014KT 10SM CLR 20/06 A2989 RMK AO2 SLP079 T02000056 10289 20200 58008
Pressure 29.77 in
Visibility 10.0 miles
Clouds Clear
Dew Point 42 °F
Humidity 37%
Rainfall 0.00 in
Snow Depth Not available.
UV 0 out of 12
Pollen 5.40 out of 12
Air Quality Not available.
Flu Activity Not available.
METAR KLMT 290553Z AUTO 16014KT 10SM CLR 20/06 A2989 RMK AO2 SLP079 T02000056 10289 20200 58008

10-Day Weather Forecast

×

Almanac

Astronomy

Aug. 28, 2015 Rise Set
Actual Time
Civil Twilight
Nautical Twilight
Astronomical Twilight
Moon
Length of Visible Light
Length of Day
Tomorrow will be .
, % of the Moon is Illuminated

Today's Extremes

State Highs State Lows

Community

WunderPhotos

Upload Photos

1,850,622 photos uploaded!

WunderBlogs® & News

Nearby

Air Quality

  Air Quality AQ Index Pollutant
Not available.

Snow Depth

Station Depth Elevation

Earthquake Activity

City Distance Mag. Time & Date
Minimum magnitude displayed is 2.5.

Coastal Water Temperatures

Place Temperature

Stations

Nearby Weather Stations

Station Location Temp. Windchill Dew Point Humidity Wind Precip. Elev Updated Type
                   
Wind Advisory
Statement as of 10:53 PM PDT on August 28, 2015

... Wind Advisory remains in effect from 2 am to 5 PM PDT
Saturday...

A Wind Advisory remains in effect from 2 am to 5 PM PDT Saturday.

* Winds: southwest 25 to 35 mph with gust up to 55 mph.

* Timing: winds will increase late tonight... peak late tonight
into Saturday morning.

* Locations include: Highway 97 near Modoc Point... and higher
terrain.

* Impacts: strong cross winds may result in hazardous travel
for high profile vehicles along Highway 97. Outdoor
recreation could become hazardous due to the potential of
falling branches and trees and blowing debris.

* View the hazard area in detail at
http://weather.Gov/Medford/hazard

Precautionary/preparedness actions... a Wind Advisory means that
winds of 35 mph are expected with higher gusts possible. Winds
this strong can make driving difficult... especially for high
profile vehicles. Use extra caution.